sensor_id;sensor_type;location;lat;lon;timestamp;P1;durP1;ratioP1;P2;durP2;ratioP2
73170;SDS011;61381;50.118;19.962;2023-04-01T00:01:57;2.80;;;1.00;;
73170;SDS011;61381;50.118;19.962;2023-04-01T00:06:59;1.25;;;0.65;;
73170;SDS011;61381;50.118;19.962;2023-04-01T00:12:00;2.50;;;0.85;;
73170;SDS011;61381;50.118;19.962;2023-04-01T00:17:03;2.25;;;0.90;;
73170;SDS011;61381;50.118;19.962;2023-04-01T00:22:04;2.67;;;1.08;;
73170;SDS011;61381;50.118;19.962;2023-04-01T00:27:05;1.77;;;0.77;;
73170;SDS011;61381;50.118;19.962;2023-04-01T00:32:07;1.83;;;1.05;;
73170;SDS011;61381;50.118;19.962;2023-04-01T00:37:08;2.80;;;1.05;;
73170;SDS011;61381;50.118;19.962;2023-04-01T00:42:10;2.22;;;1.20;;
73170;SDS011;61381;50.118;19.962;2023-04-01T00:47:13;2.15;;;0.88;;
73170;SDS011;61381;50.118;19.962;2023-04-01T00:52:15;1.15;;;0.85;;
73170;SDS011;61381;50.118;19.962;2023-04-01T00:57:20;1.17;;;0.80;;
73170;SDS011;61381;50.118;19.962;2023-04-01T01:02:29;3.05;;;1.00;;
73170;SDS011;61381;50.118;19.962;2023-04-01T01:07:35;1.65;;;1.05;;
73170;SDS011;61381;50.118;19.962;2023-04-01T01:12:44;1.67;;;1.20;;
73170;SDS011;61381;50.118;19.962;2023-04-01T01:17:58;2.50;;;1.15;;
73170;SDS011;61381;50.118;19.962;2023-04-01T01:23:14;3.38;;;1.55;;
73170;SDS011;61381;50.118;19.962;2023-04-01T01:28:35;2.53;;;1.35;;
73170;SDS011;61381;50.118;19.962;2023-04-01T01:33:51;3.20;;;1.45;;
73170;SDS011;61381;50.118;19.962;2023-04-01T01:39:01;4.85;;;1.58;;
73170;SDS011;61381;50.118;19.962;2023-04-01T01:44:06;2.70;;;1.38;;
73170;SDS011;61381;50.118;19.962;2023-04-01T01:49:09;3.58;;;1.40;;
73170;SDS011;61381;50.118;19.962;2023-04-01T01:54:13;3.28;;;1.52;;
73170;SDS011;61381;50.118;19.962;2023-04-01T01:59:16;2.30;;;1.58;;
73170;SDS011;61381;50.118;19.962;2023-04-01T02:04:20;5.60;;;1.70;;
73170;SDS011;61381;50.118;19.962;2023-04-01T02:09:23;3.13;;;1.70;;
73170;SDS011;61381;50.118;19.962;2023-04-01T02:14:24;2.58;;;1.52;;
73170;SDS011;61381;50.118;19.962;2023-04-01T02:19:29;3.33;;;1.33;;
73170;SDS011;61381;50.118;19.962;2023-04-01T02:24:35;2.85;;;1.30;;
73170;SDS011;61381;50.118;19.962;2023-04-01T02:29:39;4.50;;;1.45;;
73170;SDS011;61381;50.118;19.962;2023-04-01T02:34:40;3.63;;;1.38;;
73170;SDS011;61381;50.118;19.962;2023-04-01T02:39:44;2.42;;;1.15;;
73170;SDS011;61381;50.118;19.962;2023-04-01T02:44:45;3.47;;;1.00;;
73170;SDS011;61381;50.118;19.962;2023-04-01T02:49:46;2.88;;;1.23;;
73170;SDS011;61381;50.118;19.962;2023-04-01T02:54:49;1.90;;;1.15;;
73170;SDS011;61381;50.118;19.962;2023-04-01T02:59:50;1.88;;;1.05;;
73170;SDS011;61381;50.118;19.962;2023-04-01T03:04:51;3.22;;;1.10;;
73170;SDS011;61381;50.118;19.962;2023-04-01T03:09:54;3.05;;;1.30;;
73170;SDS011;61381;50.118;19.962;2023-04-01T03:14:55;3.13;;;1.50;;
73170;SDS011;61381;50.118;19.962;2023-04-01T03:19:56;2.13;;;1.35;;
73170;SDS011;61381;50.118;19.962;2023-04-01T03:24:59;2.50;;;1.42;;
73170;SDS011;61381;50.118;19.962;2023-04-01T03:30:00;4.03;;;1.30;;
73170;SDS011;61381;50.118;19.962;2023-04-01T03:35:01;2.38;;;1.50;;
73170;SDS011;61381;50.118;19.962;2023-04-01T03:40:05;3.33;;;1.48;;
73170;SDS011;61381;50.118;19.962;2023-04-01T03:45:07;2.35;;;1.13;;
73170;SDS011;61381;50.118;19.962;2023-04-01T03:50:08;3.22;;;1.73;;
73170;SDS011;61381;50.118;19.962;2023-04-01T03:55:11;2.60;;;1.30;;
73170;SDS011;61381;50.118;19.962;2023-04-01T04:00:13;2.63;;;1.10;;
73170;SDS011;61381;50.118;19.962;2023-04-01T04:05:14;4.03;;;1.45;;
73170;SDS011;61381;50.118;19.962;2023-04-01T04:10:17;1.92;;;1.02;;
73170;SDS011;61381;50.118;19.962;2023-04-01T04:15:18;3.53;;;1.52;;
73170;SDS011;61381;50.118;19.962;2023-04-01T04:20:19;3.20;;;1.25;;
73170;SDS011;61381;50.118;19.962;2023-04-01T04:25:22;5.43;;;1.88;;
73170;SDS011;61381;50.118;19.962;2023-04-01T04:30:23;6.65;;;1.80;;
73170;SDS011;61381;50.118;19.962;2023-04-01T04:35:24;2.72;;;1.65;;
73170;SDS011;61381;50.118;19.962;2023-04-01T04:40:27;2.65;;;2.08;;
73170;SDS011;61381;50.118;19.962;2023-04-01T04:45:28;5.47;;;1.60;;
73170;SDS011;61381;50.118;19.962;2023-04-01T04:50:29;2.55;;;1.33;;
73170;SDS011;61381;50.118;19.962;2023-04-01T04:55:31;4.05;;;1.90;;
73170;SDS011;61381;50.118;19.962;2023-04-01T05:00:33;2.15;;;1.35;;
73170;SDS011;61381;50.118;19.962;2023-04-01T05:05:34;4.63;;;1.50;;
73170;SDS011;61381;50.118;19.962;2023-04-01T05:10:36;5.65;;;1.60;;
73170;SDS011;61381;50.118;19.962;2023-04-01T05:15:37;3.45;;;1.50;;
73170;SDS011;61381;50.118;19.962;2023-04-01T05:20:39;2.88;;;1.30;;
73170;SDS011;61381;50.118;19.962;2023-04-01T05:25:41;3.00;;;1.42;;
73170;SDS011;61381;50.118;19.962;2023-04-01T05:30:43;3.05;;;1.40;;
73170;SDS011;61381;50.118;19.962;2023-04-01T05:35:44;3.22;;;1.30;;
73170;SDS011;61381;50.118;19.962;2023-04-01T05:40:47;1.88;;;1.23;;
73170;SDS011;61381;50.118;19.962;2023-04-01T05:45:48;2.65;;;1.40;;
73170;SDS011;61381;50.118;19.962;2023-04-01T05:50:49;1.73;;;1.00;;
73170;SDS011;61381;50.118;19.962;2023-04-01T05:55:51;1.88;;;0.93;;
73170;SDS011;61381;50.118;19.962;2023-04-01T06:00:59;2.65;;;1.15;;
73170;SDS011;61381;50.118;19.962;2023-04-01T06:06:01;1.13;;;0.90;;
73170;SDS011;61381;50.118;19.962;2023-04-01T06:11:07;3.05;;;1.38;;
73170;SDS011;61381;50.118;19.962;2023-04-01T06:16:21;2.03;;;1.17;;
73170;SDS011;61381;50.118;19.962;2023-04-01T06:27:26;2.53;;;1.42;;
73170;SDS011;61381;50.118;19.962;2023-04-01T06:38:13;2.13;;;1.40;;
73170;SDS011;61381;50.118;19.962;2023-04-01T06:43:27;3.38;;;1.35;;
73170;SDS011;61381;50.118;19.962;2023-04-01T06:48:42;4.05;;;1.42;;
73170;SDS011;61381;50.118;19.962;2023-04-01T06:54:00;2.22;;;1.25;;
73170;SDS011;61381;50.118;19.962;2023-04-01T06:59:07;3.17;;;1.40;;
73170;SDS011;61381;50.118;19.962;2023-04-01T07:04:13;4.28;;;1.52;;
73170;SDS011;61381;50.118;19.962;2023-04-01T07:09:18;2.03;;;1.10;;
73170;SDS011;61381;50.118;19.962;2023-04-01T07:14:25;2.78;;;1.38;;
73170;SDS011;61381;50.118;19.962;2023-04-01T07:19:31;2.78;;;1.13;;
73170;SDS011;61381;50.118;19.962;2023-04-01T07:24:39;2.83;;;1.42;;
73170;SDS011;61381;50.118;19.962;2023-04-01T07:29:45;3.28;;;1.70;;
73170;SDS011;61381;50.118;19.962;2023-04-01T07:34:50;5.63;;;1.60;;
73170;SDS011;61381;50.118;19.962;2023-04-01T07:40:02;3.33;;;1.30;;
73170;SDS011;61381;50.118;19.962;2023-04-01T07:45:15;2.88;;;1.33;;
73170;SDS011;61381;50.118;19.962;2023-04-01T07:50:25;4.28;;;1.48;;
73170;SDS011;61381;50.118;19.962;2023-04-01T07:55:29;3.70;;;1.30;;
73170;SDS011;61381;50.118;19.962;2023-04-01T08:00:36;1.17;;;1.00;;
73170;SDS011;61381;50.118;19.962;2023-04-01T08:05:46;2.28;;;1.00;;
73170;SDS011;61381;50.118;19.962;2023-04-01T08:10:55;4.90;;;1.30;;
73170;SDS011;61381;50.118;19.962;2023-04-01T08:16:06;3.38;;;1.42;;
73170;SDS011;61381;50.118;19.962;2023-04-01T08:21:13;5.90;;;1.50;;
73170;SDS011;61381;50.118;19.962;2023-04-01T08:26:20;2.55;;;1.40;;
73170;SDS011;61381;50.118;19.962;2023-04-01T08:31:31;2.08;;;1.25;;
73170;SDS011;61381;50.118;19.962;2023-04-01T08:36:38;3.70;;;1.50;;
73170;SDS011;61381;50.118;19.962;2023-04-01T08:41:49;2.45;;;0.95;;
73170;SDS011;61381;50.118;19.962;2023-04-01T08:47:09;3.22;;;1.40;;
73170;SDS011;61381;50.118;19.962;2023-04-01T08:52:35;5.05;;;1.60;;
73170;SDS011;61381;50.118;19.962;2023-04-01T08:57:39;3.92;;;1.30;;
73170;SDS011;61381;50.118;19.962;2023-04-01T09:03:02;1.58;;;1.15;;
73170;SDS011;61381;50.118;19.962;2023-04-01T09:08:31;2.45;;;1.20;;
73170;SDS011;61381;50.118;19.962;2023-04-01T09:13:49;1.45;;;0.88;;
73170;SDS011;61381;50.118;19.962;2023-04-01T09:19:07;3.67;;;1.45;;
73170;SDS011;61381;50.118;19.962;2023-04-01T09:24:21;3.08;;;1.75;;
73170;SDS011;61381;50.118;19.962;2023-04-01T09:34:59;1.63;;;1.20;;
73170;SDS011;61381;50.118;19.962;2023-04-01T09:40:14;1.90;;;1.20;;
73170;SDS011;61381;50.118;19.962;2023-04-01T09:45:24;2.33;;;1.23;;
73170;SDS011;61381;50.118;19.962;2023-04-01T09:50:41;4.05;;;1.65;;
73170;SDS011;61381;50.118;19.962;2023-04-01T10:01:45;3.03;;;1.48;;
73170;SDS011;61381;50.118;19.962;2023-04-01T10:07:30;4.88;;;3.22;;
73170;SDS011;61381;50.118;19.962;2023-04-01T10:18:49;3.75;;;2.70;;
73170;SDS011;61381;50.118;19.962;2023-04-01T10:24:27;3.15;;;1.80;;
73170;SDS011;61381;50.118;19.962;2023-04-01T10:41:22;2.78;;;1.02;;
73170;SDS011;61381;50.118;19.962;2023-04-01T10:52:40;1.35;;;0.80;;
73170;SDS011;61381;50.118;19.962;2023-04-01T11:03:46;3.28;;;1.52;;
73170;SDS011;61381;50.118;19.962;2023-04-01T11:20:59;5.03;;;3.67;;
73170;SDS011;61381;50.118;19.962;2023-04-01T11:26:18;2.85;;;2.50;;
73170;SDS011;61381;50.118;19.962;2023-04-01T11:31:37;4.60;;;3.40;;
73170;SDS011;61381;50.118;19.962;2023-04-01T11:36:51;2.53;;;2.33;;
73170;SDS011;61381;50.118;19.962;2023-04-01T11:42:05;4.40;;;2.22;;
73170;SDS011;61381;50.118;19.962;2023-04-01T11:47:19;3.88;;;2.53;;
73170;SDS011;61381;50.118;19.962;2023-04-01T11:52:51;4.18;;;3.20;;
73170;SDS011;61381;50.118;19.962;2023-04-01T11:58:19;3.42;;;2.42;;
73170;SDS011;61381;50.118;19.962;2023-04-01T12:08:57;4.15;;;2.63;;
73170;SDS011;61381;50.118;19.962;2023-04-01T12:14:07;3.47;;;2.30;;
73170;SDS011;61381;50.118;19.962;2023-04-01T12:19:16;2.17;;;1.67;;
73170;SDS011;61381;50.118;19.962;2023-04-01T12:24:38;4.38;;;2.40;;
73170;SDS011;61381;50.118;19.962;2023-04-01T12:29:57;2.25;;;1.80;;
73170;SDS011;61381;50.118;19.962;2023-04-01T12:35:39;2.97;;;2.25;;
73170;SDS011;61381;50.118;19.962;2023-04-01T12:46:15;2.35;;;1.80;;
73170;SDS011;61381;50.118;19.962;2023-04-01T12:51:38;3.03;;;1.38;;
73170;SDS011;61381;50.118;19.962;2023-04-01T12:56:52;1.88;;;1.23;;
73170;SDS011;61381;50.118;19.962;2023-04-01T13:02:12;2.53;;;1.77;;
73170;SDS011;61381;50.118;19.962;2023-04-01T13:07:23;1.83;;;1.50;;
73170;SDS011;61381;50.118;19.962;2023-04-01T13:18:21;1.70;;;1.50;;
73170;SDS011;61381;50.118;19.962;2023-04-01T13:23:34;3.13;;;1.88;;
73170;SDS011;61381;50.118;19.962;2023-04-01T13:28:46;3.35;;;2.05;;
73170;SDS011;61381;50.118;19.962;2023-04-01T13:33:53;3.65;;;1.75;;
73170;SDS011;61381;50.118;19.962;2023-04-01T13:39:09;3.40;;;1.55;;
73170;SDS011;61381;50.118;19.962;2023-04-01T13:44:21;3.38;;;1.90;;
73170;SDS011;61381;50.118;19.962;2023-04-01T13:55:11;2.75;;;1.38;;
73170;SDS011;61381;50.118;19.962;2023-04-01T14:00:27;2.22;;;1.35;;
73170;SDS011;61381;50.118;19.962;2023-04-01T14:05:39;1.92;;;1.40;;
73170;SDS011;61381;50.118;19.962;2023-04-01T14:10:53;1.92;;;0.88;;
73170;SDS011;61381;50.118;19.962;2023-04-01T14:16:11;1.77;;;0.95;;
73170;SDS011;61381;50.118;19.962;2023-04-01T14:21:36;1.17;;;0.63;;
73170;SDS011;61381;50.118;19.962;2023-04-01T14:32:12;2.60;;;0.80;;
73170;SDS011;61381;50.118;19.962;2023-04-01T14:37:30;1.73;;;1.10;;
73170;SDS011;61381;50.118;19.962;2023-04-01T14:48:21;4.22;;;2.55;;
73170;SDS011;61381;50.118;19.962;2023-04-01T14:53:27;3.78;;;2.67;;
73170;SDS011;61381;50.118;19.962;2023-04-01T14:58:40;4.25;;;2.60;;
73170;SDS011;61381;50.118;19.962;2023-04-01T15:03:48;5.50;;;3.03;;
73170;SDS011;61381;50.118;19.962;2023-04-01T15:09:00;4.55;;;3.25;;
73170;SDS011;61381;50.118;19.962;2023-04-01T15:20:02;6.28;;;2.60;;
73170;SDS011;61381;50.118;19.962;2023-04-01T15:25:19;8.60;;;4.97;;
73170;SDS011;61381;50.118;19.962;2023-04-01T15:30:32;2.15;;;1.50;;
73170;SDS011;61381;50.118;19.962;2023-04-01T15:35:41;3.72;;;1.77;;
73170;SDS011;61381;50.118;19.962;2023-04-01T15:40:48;4.95;;;2.88;;
73170;SDS011;61381;50.118;19.962;2023-04-01T15:45:56;7.82;;;4.05;;
73170;SDS011;61381;50.118;19.962;2023-04-01T15:51:18;7.57;;;4.07;;
73170;SDS011;61381;50.118;19.962;2023-04-01T15:56:36;4.78;;;2.70;;
73170;SDS011;61381;50.118;19.962;2023-04-01T16:01:47;7.53;;;4.82;;
73170;SDS011;61381;50.118;19.962;2023-04-01T16:06:55;14.48;;;7.18;;
73170;SDS011;61381;50.118;19.962;2023-04-01T16:17:11;9.20;;;5.80;;
73170;SDS011;61381;50.118;19.962;2023-04-01T16:22:29;8.77;;;4.95;;
73170;SDS011;61381;50.118;19.962;2023-04-01T16:27:35;7.65;;;4.32;;
73170;SDS011;61381;50.118;19.962;2023-04-01T16:32:43;6.82;;;4.15;;
73170;SDS011;61381;50.118;19.962;2023-04-01T16:37:52;8.35;;;4.28;;
73170;SDS011;61381;50.118;19.962;2023-04-01T16:42:58;7.40;;;4.47;;
73170;SDS011;61381;50.118;19.962;2023-04-01T16:48:11;6.38;;;3.67;;
73170;SDS011;61381;50.118;19.962;2023-04-01T16:53:16;7.70;;;4.13;;
73170;SDS011;61381;50.118;19.962;2023-04-01T16:58:21;10.00;;;5.18;;
73170;SDS011;61381;50.118;19.962;2023-04-01T17:03:26;9.77;;;5.50;;
73170;SDS011;61381;50.118;19.962;2023-04-01T17:08:39;12.88;;;6.43;;
73170;SDS011;61381;50.118;19.962;2023-04-01T17:13:51;16.05;;;8.18;;
73170;SDS011;61381;50.118;19.962;2023-04-01T17:19:08;18.08;;;8.73;;
73170;SDS011;61381;50.118;19.962;2023-04-01T17:24:25;22.60;;;13.60;;
73170;SDS011;61381;50.118;19.962;2023-04-01T17:29:41;22.15;;;11.98;;
73170;SDS011;61381;50.118;19.962;2023-04-01T17:34:58;20.08;;;9.80;;
73170;SDS011;61381;50.118;19.962;2023-04-01T17:40:24;19.52;;;9.65;;
73170;SDS011;61381;50.118;19.962;2023-04-01T17:45:36;18.15;;;9.57;;
73170;SDS011;61381;50.118;19.962;2023-04-01T17:50:48;15.68;;;8.73;;
73170;SDS011;61381;50.118;19.962;2023-04-01T17:56:04;16.80;;;8.90;;
73170;SDS011;61381;50.118;19.962;2023-04-01T18:01:17;15.77;;;8.75;;
73170;SDS011;61381;50.118;19.962;2023-04-01T18:06:29;19.42;;;8.95;;
73170;SDS011;61381;50.118;19.962;2023-04-01T18:11:39;21.98;;;9.95;;
73170;SDS011;61381;50.118;19.962;2023-04-01T18:17:02;16.65;;;9.50;;
73170;SDS011;61381;50.118;19.962;2023-04-01T18:22:15;18.63;;;11.20;;
73170;SDS011;61381;50.118;19.962;2023-04-01T18:27:23;20.55;;;10.98;;
73170;SDS011;61381;50.118;19.962;2023-04-01T18:32:31;22.05;;;10.75;;
73170;SDS011;61381;50.118;19.962;2023-04-01T18:37:36;20.95;;;11.52;;
73170;SDS011;61381;50.118;19.962;2023-04-01T18:42:45;22.60;;;12.27;;
73170;SDS011;61381;50.118;19.962;2023-04-01T18:47:56;23.17;;;12.68;;
73170;SDS011;61381;50.118;19.962;2023-04-01T18:53:09;25.13;;;12.68;;
73170;SDS011;61381;50.118;19.962;2023-04-01T18:58:31;24.90;;;13.15;;
73170;SDS011;61381;50.118;19.962;2023-04-01T19:03:37;28.92;;;14.90;;
73170;SDS011;61381;50.118;19.962;2023-04-01T19:08:44;40.53;;;21.63;;
73170;SDS011;61381;50.118;19.962;2023-04-01T19:13:49;31.10;;;19.23;;
73170;SDS011;61381;50.118;19.962;2023-04-01T19:24:49;33.72;;;15.57;;
73170;SDS011;61381;50.118;19.962;2023-04-01T19:30:17;35.08;;;17.25;;
73170;SDS011;61381;50.118;19.962;2023-04-01T19:35:26;35.45;;;18.45;;
73170;SDS011;61381;50.118;19.962;2023-04-01T19:40:47;40.75;;;20.00;;
73170;SDS011;61381;50.118;19.962;2023-04-01T19:45:57;42.42;;;21.35;;
73170;SDS011;61381;50.118;19.962;2023-04-01T19:51:08;42.00;;;20.10;;
73170;SDS011;61381;50.118;19.962;2023-04-01T19:56:12;45.30;;;22.38;;
73170;SDS011;61381;50.118;19.962;2023-04-01T20:01:20;51.67;;;24.25;;
73170;SDS011;61381;50.118;19.962;2023-04-01T20:06:28;49.53;;;22.95;;
73170;SDS011;61381;50.118;19.962;2023-04-01T20:11:38;44.70;;;21.88;;
73170;SDS011;61381;50.118;19.962;2023-04-01T20:16:55;43.30;;;21.58;;
73170;SDS011;61381;50.118;19.962;2023-04-01T20:22:03;50.60;;;23.52;;
73170;SDS011;61381;50.118;19.962;2023-04-01T20:27:14;57.47;;;24.65;;
73170;SDS011;61381;50.118;19.962;2023-04-01T20:38:06;52.75;;;21.83;;
73170;SDS011;61381;50.118;19.962;2023-04-01T20:43:32;44.00;;;20.33;;
73170;SDS011;61381;50.118;19.962;2023-04-01T20:48:47;42.53;;;19.30;;
73170;SDS011;61381;50.118;19.962;2023-04-01T20:54:05;43.53;;;20.33;;
73170;SDS011;61381;50.118;19.962;2023-04-01T20:59:25;40.10;;;18.30;;
73170;SDS011;61381;50.118;19.962;2023-04-01T21:04:40;36.60;;;19.05;;
73170;SDS011;61381;50.118;19.962;2023-04-01T21:09:53;42.33;;;20.98;;
73170;SDS011;61381;50.118;19.962;2023-04-01T21:15:11;43.63;;;20.17;;
73170;SDS011;61381;50.118;19.962;2023-04-01T21:20:27;38.22;;;18.35;;
73170;SDS011;61381;50.118;19.962;2023-04-01T21:25:52;37.75;;;17.15;;
73170;SDS011;61381;50.118;19.962;2023-04-01T21:31:10;43.92;;;19.27;;
73170;SDS011;61381;50.118;19.962;2023-04-01T21:36:27;43.47;;;21.13;;
73170;SDS011;61381;50.118;19.962;2023-04-01T21:41:45;44.72;;;21.27;;
73170;SDS011;61381;50.118;19.962;2023-04-01T21:52:55;38.95;;;18.08;;
73170;SDS011;61381;50.118;19.962;2023-04-01T21:58:21;40.35;;;18.92;;
73170;SDS011;61381;50.118;19.962;2023-04-01T22:03:57;40.92;;;19.48;;
73170;SDS011;61381;50.118;19.962;2023-04-01T22:09:31;39.80;;;18.30;;
73170;SDS011;61381;50.118;19.962;2023-04-01T22:14:40;35.88;;;17.58;;
73170;SDS011;61381;50.118;19.962;2023-04-01T22:19:47;37.33;;;17.35;;
73170;SDS011;61381;50.118;19.962;2023-04-01T22:25:02;35.33;;;15.60;;
73170;SDS011;61381;50.118;19.962;2023-04-01T22:30:11;35.25;;;15.93;;
73170;SDS011;61381;50.118;19.962;2023-04-01T22:35:21;37.70;;;16.63;;
73170;SDS011;61381;50.118;19.962;2023-04-01T22:40:34;45.88;;;21.65;;
73170;SDS011;61381;50.118;19.962;2023-04-01T22:45:48;42.50;;;21.23;;
73170;SDS011;61381;50.118;19.962;2023-04-01T22:51:09;41.50;;;19.55;;
73170;SDS011;61381;50.118;19.962;2023-04-01T22:56:20;42.33;;;18.30;;
73170;SDS011;61381;50.118;19.962;2023-04-01T23:01:29;36.42;;;17.25;;
73170;SDS011;61381;50.118;19.962;2023-04-01T23:06:35;40.95;;;18.92;;
73170;SDS011;61381;50.118;19.962;2023-04-01T23:11:45;47.38;;;22.17;;
73170;SDS011;61381;50.118;19.962;2023-04-01T23:16:51;51.03;;;23.20;;
73170;SDS011;61381;50.118;19.962;2023-04-01T23:21:59;55.65;;;23.85;;
73170;SDS011;61381;50.118;19.962;2023-04-01T23:27:10;45.15;;;21.75;;
73170;SDS011;61381;50.118;19.962;2023-04-01T23:32:18;44.00;;;20.98;;
73170;SDS011;61381;50.118;19.962;2023-04-01T23:37:22;47.15;;;21.35;;
73170;SDS011;61381;50.118;19.962;2023-04-01T23:42:27;43.80;;;20.42;;
73170;SDS011;61381;50.118;19.962;2023-04-01T23:47:31;53.30;;;25.80;;
73170;SDS011;61381;50.118;19.962;2023-04-01T23:52:35;57.03;;;26.05;;
73170;SDS011;61381;50.118;19.962;2023-04-01T23:57:38;46.22;;;22.63;;
